createdAt,value
2022-11-21T00:02:23.786Z,59.83
2022-11-21T00:05:30.820Z,48.50
2022-11-21T00:08:33.783Z,53.72
2022-11-21T00:11:36.880Z,50.10
2022-11-21T00:14:39.776Z,54.95
2022-11-21T00:17:43.039Z,47.95
2022-11-21T00:20:46.024Z,49.15
2022-11-21T00:23:49.521Z,50.83
2022-11-21T00:26:52.735Z,116.47
2022-11-21T00:29:55.878Z,55.20
2022-11-21T00:32:59.533Z,56.25
2022-11-21T00:36:09.392Z,57.42
2022-11-21T00:39:12.321Z,46.08
2022-11-21T00:42:16.563Z,47.03
2022-11-21T00:45:23.994Z,50.70
2022-11-21T00:48:28.778Z,61.00
2022-11-21T00:51:32.964Z,49.72
2022-11-21T00:54:36.111Z,48.15
2022-11-21T00:57:38.972Z,88.03
2022-11-21T01:00:42.160Z,126.30
2022-11-21T01:03:46.377Z,60.17
2022-11-21T01:06:49.537Z,80.55
2022-11-21T01:09:52.635Z,86.28
2022-11-21T01:12:55.828Z,79.62
2022-11-21T01:16:13.379Z,44.63
2022-11-21T01:19:16.592Z,98.00
2022-11-21T01:22:19.430Z,80.80
2022-11-21T01:25:22.549Z,75.32
2022-11-21T01:28:25.433Z,63.05
2022-11-21T01:31:30.152Z,58.47
2022-11-21T01:34:33.315Z,47.40
2022-11-21T01:37:36.554Z,69.28
2022-11-21T01:40:40.537Z,121.72
2022-11-21T01:43:44.149Z,70.85
2022-11-21T01:46:49.148Z,108.05
2022-11-21T01:49:53.557Z,50.97
2022-11-21T01:52:56.770Z,78.30
2022-11-21T01:56:01.555Z,57.13
2022-11-21T01:59:05.310Z,111.15
2022-11-21T02:02:10.885Z,70.05
2022-11-21T02:05:18.130Z,59.90
2022-11-21T02:08:21.546Z,48.35
2022-11-21T02:11:44.728Z,51.15
2022-11-21T02:14:47.743Z,141.48
2022-11-21T02:17:51.038Z,152.65
2022-11-21T02:21:17.180Z,107.15
2022-11-21T02:24:39.306Z,46.20
2022-11-21T02:27:42.598Z,88.05
2022-11-21T02:30:45.765Z,151.75
2022-11-21T02:33:48.660Z,105.03
2022-11-21T02:36:52.014Z,140.68
2022-11-21T02:39:55.943Z,82.88
2022-11-21T02:43:13.917Z,135.15
2022-11-21T02:46:16.794Z,100.70
2022-11-21T02:49:40.361Z,117.13
2022-11-21T02:52:43.851Z,61.92
2022-11-21T02:55:47.042Z,42.33
2022-11-21T02:58:49.879Z,62.95
2022-11-21T03:01:53.168Z,42.60
2022-11-21T03:04:56.106Z,86.47
2022-11-21T03:07:59.928Z,70.78
2022-11-21T03:11:02.889Z,39.40
2022-11-21T03:14:06.503Z,78.57
2022-11-21T03:17:10.756Z,61.70
2022-11-21T03:20:14.032Z,63.83
2022-11-21T03:23:16.972Z,69.35
2022-11-21T03:26:20.356Z,43.15
2022-11-21T03:29:24.649Z,51.15
2022-11-21T03:32:27.819Z,42.63
2022-11-21T03:35:31.599Z,48.92
2022-11-21T03:38:35.243Z,39.05
2022-11-21T03:41:38.177Z,51.42
2022-11-21T03:44:41.962Z,45.85
2022-11-21T03:47:45.097Z,69.00
2022-11-21T03:50:48.236Z,54.17
2022-11-21T03:53:51.484Z,47.97
2022-11-21T03:56:54.603Z,44.03
2022-11-21T03:59:57.397Z,48.08
2022-11-21T04:03:01.698Z,38.70
2022-11-21T04:06:04.957Z,45.40
2022-11-21T04:09:08.136Z,48.40
2022-11-21T04:12:12.641Z,36.00
2022-11-21T04:15:15.906Z,30.85
2022-11-21T04:18:19.908Z,39.85
2022-11-21T04:21:23.291Z,26.48
2022-11-21T04:24:26.869Z,32.45
2022-11-21T04:27:30.047Z,37.28
2022-11-21T04:30:34.625Z,36.90
2022-11-21T04:33:38.111Z,43.92
2022-11-21T04:36:41.244Z,37.28
2022-11-21T04:39:44.171Z,38.47
2022-11-21T04:42:48.323Z,28.83
2022-11-21T04:45:51.291Z,32.20
2022-11-21T04:48:54.669Z,36.85
2022-11-21T04:51:57.532Z,25.73
2022-11-21T04:55:00.893Z,31.27
2022-11-21T04:58:04.040Z,27.45
2022-11-21T05:01:08.934Z,28.42
2022-11-21T05:04:13.395Z,30.83
2022-11-21T05:07:17.253Z,26.87
2022-11-21T05:10:20.156Z,26.37
2022-11-21T05:13:23.370Z,23.12
2022-11-21T05:16:26.172Z,28.35
2022-11-21T05:19:29.403Z,26.98
2022-11-21T05:22:32.412Z,30.77
2022-11-21T05:25:35.560Z,35.83
2022-11-21T05:28:39.076Z,31.40
2022-11-21T05:31:42.292Z,31.83
2022-11-21T05:34:45.222Z,35.50
2022-11-21T05:37:48.607Z,50.10
2022-11-21T05:40:54.490Z,41.70
2022-11-21T05:43:57.557Z,39.35
2022-11-21T05:47:01.461Z,46.35
2022-11-21T05:53:09.109Z,37.15
2022-11-21T05:56:16.734Z,30.12
2022-11-21T05:59:19.855Z,56.80
2022-11-21T06:02:41.646Z,43.53
2022-11-21T06:05:44.823Z,40.17
2022-11-21T06:08:47.805Z,35.53
2022-11-21T06:11:50.971Z,54.97
2022-11-21T06:14:53.845Z,41.80
2022-11-21T06:18:01.734Z,51.53
2022-11-21T06:21:18.290Z,111.93
2022-11-21T06:24:22.443Z,71.68
2022-11-21T06:27:25.437Z,82.07
2022-11-21T06:30:28.911Z,117.75
2022-11-21T06:33:32.169Z,89.25
2022-11-21T06:36:35.328Z,66.72
2022-11-21T06:39:38.371Z,100.82
2022-11-21T06:42:43.391Z,68.10
2022-11-21T06:45:46.579Z,67.50
2022-11-21T06:48:50.817Z,57.33
2022-11-21T06:51:53.733Z,46.58
2022-11-21T06:54:56.833Z,52.28
2022-11-21T06:58:00.177Z,52.00
2022-11-21T07:01:07.832Z,51.22
2022-11-21T07:04:10.686Z,49.17
2022-11-21T07:07:13.793Z,76.72
2022-11-21T07:10:16.660Z,43.65
2022-11-21T07:13:23.114Z,47.50
2022-11-21T07:16:31.943Z,47.25
2022-11-21T07:19:39.708Z,52.90
2022-11-21T07:22:43.797Z,52.25
2022-11-21T07:25:46.959Z,137.20
2022-11-21T07:28:49.860Z,126.72
2022-11-21T07:31:53.014Z,84.65
2022-11-21T07:34:56.184Z,43.35
2022-11-21T07:37:59.641Z,52.17
2022-11-21T07:41:02.547Z,41.00
2022-11-21T07:44:05.886Z,58.60
2022-11-21T07:47:09.163Z,54.50
2022-11-21T07:50:13.316Z,65.05
2022-11-21T07:53:17.565Z,68.15
2022-11-21T07:56:20.728Z,64.20
2022-11-21T07:59:23.686Z,97.68
2022-11-21T08:02:28.254Z,212.05
2022-11-21T08:05:31.508Z,139.70
2022-11-21T08:08:34.779Z,109.85
2022-11-21T08:11:37.982Z,107.05
2022-11-21T08:14:41.427Z,159.32
2022-11-21T08:17:44.697Z,68.32
2022-11-21T08:20:48.002Z,114.05
2022-11-21T08:23:51.183Z,102.18
2022-11-21T08:26:54.059Z,157.18
2022-11-21T08:29:58.525Z,276.45
2022-11-21T08:33:02.380Z,184.25
2022-11-21T08:36:06.968Z,171.30
2022-11-21T08:39:10.977Z,189.10
2022-11-21T08:42:13.817Z,140.18
2022-11-21T08:45:18.076Z,74.40
2022-11-21T08:48:20.919Z,74.75
2022-11-21T08:51:23.784Z,38.05
2022-11-21T08:54:27.411Z,33.03
2022-11-21T08:57:31.709Z,35.83
2022-11-21T09:00:34.885Z,21.70
2022-11-21T09:03:37.768Z,28.17
2022-11-21T09:06:41.125Z,22.42
2022-11-21T09:09:43.962Z,24.37
2022-11-21T09:12:47.501Z,22.77
2022-11-21T09:16:09.080Z,25.05
2022-11-21T09:19:12.176Z,22.00
2022-11-21T09:22:15.131Z,20.17
2022-11-21T09:25:18.327Z,26.70
2022-11-21T09:28:21.159Z,22.27
2022-11-21T09:31:24.440Z,21.90
2022-11-21T09:34:27.615Z,22.65
2022-11-21T09:37:38.063Z,27.58
2022-11-21T09:40:45.182Z,35.88
2022-11-21T09:44:02.317Z,26.75
2022-11-21T09:47:20.494Z,20.60
2022-11-21T09:50:33.526Z,21.70
2022-11-21T09:53:56.843Z,18.70
2022-11-21T09:57:01.031Z,27.87
2022-11-21T10:00:22.141Z,21.62
2022-11-21T10:03:28.435Z,23.77
2022-11-21T10:06:36.984Z,18.70
2022-11-21T10:09:49.510Z,14.02
2022-11-21T10:13:03.110Z,12.10
2022-11-21T10:16:41.690Z,13.98
2022-11-21T10:20:03.939Z,13.18
2022-11-21T10:23:44.703Z,17.33
2022-11-21T10:26:56.599Z,20.05
2022-11-21T10:30:03.343Z,18.37
2022-11-21T10:33:09.204Z,13.30
2022-11-21T10:36:12.221Z,15.43
2022-11-21T10:39:24.208Z,13.85
2022-11-21T10:42:37.062Z,15.02
2022-11-21T10:45:39.866Z,15.20
2022-11-21T10:48:42.958Z,19.12
2022-11-21T10:52:02.383Z,15.75
2022-11-21T10:55:05.418Z,16.83
2022-11-21T10:58:19.031Z,15.90
2022-11-21T11:01:34.498Z,20.25
2022-11-21T11:04:47.438Z,18.02
2022-11-21T11:08:05.771Z,14.95
2022-11-21T11:11:14.092Z,14.60
2022-11-21T11:14:29.297Z,17.02
2022-11-21T11:17:33.625Z,18.65
2022-11-21T11:20:41.191Z,20.40
2022-11-21T11:23:47.002Z,35.28
2022-11-21T11:26:52.846Z,20.42
2022-11-21T11:29:56.827Z,21.90
2022-11-21T11:33:01.624Z,17.00
2022-11-21T11:36:39.724Z,22.47
2022-11-21T11:39:55.018Z,20.52
2022-11-21T11:43:25.558Z,24.33
2022-11-21T11:47:00.382Z,24.30
2022-11-21T11:50:17.779Z,17.20
2022-11-21T11:53:31.604Z,18.95
2022-11-21T11:56:40.150Z,17.90
2022-11-21T12:00:22.800Z,20.15
2022-11-21T12:03:41.141Z,24.75
2022-11-21T12:08:05.764Z,22.37
2022-11-21T12:10:28.881Z,19.00
2022-11-21T12:13:31.782Z,21.05
2022-11-21T12:16:36.893Z,19.25
2022-11-21T12:19:40.118Z,23.80
2022-11-21T12:22:44.536Z,22.70
2022-11-21T12:26:05.707Z,21.87
2022-11-21T12:29:20.387Z,21.98
2022-11-21T12:32:45.451Z,25.80
2022-11-21T12:36:17.966Z,21.02
2022-11-21T12:39:32.877Z,21.12
2022-11-21T12:43:11.599Z,18.08
2022-11-21T12:46:21.108Z,18.35
2022-11-21T12:50:07.927Z,17.70
2022-11-21T12:56:42.314Z,13.48
2022-11-21T13:00:04.988Z,14.27
2022-11-21T13:04:05.491Z,18.17
2022-11-21T13:07:13.266Z,16.87
2022-11-21T13:10:17.785Z,32.92
2022-11-21T13:13:29.760Z,18.47
2022-11-21T13:16:40.327Z,15.63
2022-11-21T13:20:01.500Z,17.05
2022-11-21T13:23:06.744Z,15.57
2022-11-21T13:29:29.510Z,15.05
2022-11-21T13:32:42.247Z,12.25
2022-11-21T13:35:51.634Z,14.90
2022-11-21T13:38:54.462Z,14.98
2022-11-21T13:42:21.080Z,15.85
2022-11-21T13:45:48.497Z,19.48
2022-11-21T13:49:00.328Z,17.98
2022-11-21T13:52:11.846Z,23.60
2022-11-21T13:55:31.813Z,24.25
2022-11-21T13:58:45.309Z,27.98
2022-11-21T14:01:59.028Z,24.92
2022-11-21T14:05:34.661Z,25.25
2022-11-21T14:08:37.746Z,25.48
2022-11-21T14:11:52.584Z,27.00
2022-11-21T14:15:38.896Z,20.67
2022-11-21T14:18:43.837Z,24.55
2022-11-21T14:21:49.025Z,24.05
2022-11-21T14:24:53.524Z,27.50
2022-11-21T14:27:56.632Z,21.83
2022-11-21T14:31:03.896Z,23.42
2022-11-21T14:34:09.651Z,21.65
2022-11-21T14:37:13.328Z,25.25
2022-11-21T14:40:25.330Z,21.58
2022-11-21T14:43:33.510Z,19.77
2022-11-21T14:46:38.007Z,21.98
2022-11-21T14:49:52.297Z,18.80
2022-11-21T14:52:58.840Z,20.80
2022-11-21T14:56:02.110Z,20.45
2022-11-21T14:59:05.273Z,22.75
2022-11-21T15:02:35.156Z,22.62
2022-11-21T15:06:01.501Z,18.98
2022-11-21T15:12:37.324Z,21.23
2022-11-21T15:15:44.727Z,23.75
2022-11-21T15:21:53.679Z,18.73
2022-11-21T15:25:17.639Z,17.23
2022-11-21T15:28:20.743Z,22.60
2022-11-21T15:31:24.294Z,20.58
2022-11-21T15:34:48.034Z,27.95
2022-11-21T15:37:51.117Z,29.95
2022-11-21T15:41:09.903Z,29.83
2022-11-21T15:44:13.247Z,30.98
2022-11-21T15:47:16.681Z,22.83
2022-11-21T15:50:24.755Z,20.70
2022-11-21T15:53:28.385Z,19.33
2022-11-21T15:56:31.891Z,17.37
2022-11-21T15:59:37.087Z,18.52
2022-11-21T16:02:40.246Z,15.70
2022-11-21T16:05:44.230Z,18.12
2022-11-21T16:08:48.278Z,17.37
2022-11-21T16:11:51.481Z,20.52
2022-11-21T16:14:54.294Z,18.15
2022-11-21T16:17:57.739Z,18.17
2022-11-21T16:21:11.763Z,16.83
2022-11-21T16:24:15.127Z,19.80
2022-11-21T16:27:18.176Z,29.20
2022-11-21T16:30:21.853Z,26.98
2022-11-21T16:33:27.415Z,30.30
2022-11-21T16:36:32.527Z,28.33
2022-11-21T16:39:35.945Z,29.57
2022-11-21T16:42:39.616Z,24.20
2022-11-21T16:45:42.812Z,22.58
2022-11-21T16:48:46.199Z,21.48
2022-11-21T16:51:49.540Z,27.70
2022-11-21T16:54:52.734Z,23.70
2022-11-21T16:57:58.409Z,20.00
2022-11-21T17:01:16.489Z,21.35
2022-11-21T17:04:20.258Z,21.83
2022-11-21T17:07:23.514Z,22.13
2022-11-21T17:10:33.686Z,23.75
2022-11-21T17:13:38.047Z,25.48
2022-11-21T17:16:41.888Z,27.27
2022-11-21T17:19:45.364Z,29.33
2022-11-21T17:22:48.375Z,31.95
2022-11-21T17:25:51.907Z,31.35
2022-11-21T17:29:00.344Z,33.80
2022-11-21T17:32:03.921Z,29.83
2022-11-21T17:35:07.739Z,26.42
2022-11-21T17:38:11.401Z,25.40
2022-11-21T17:41:17.336Z,27.45
2022-11-21T17:44:20.977Z,25.90
2022-11-21T17:47:25.472Z,20.33
2022-11-21T17:50:30.454Z,20.12
2022-11-21T17:53:36.072Z,20.70
2022-11-21T17:56:45.908Z,21.42
2022-11-21T17:59:50.659Z,21.17
2022-11-21T18:02:56.665Z,22.15
2022-11-21T18:06:11.329Z,22.98
2022-11-21T18:09:15.051Z,20.08
2022-11-21T18:12:18.802Z,21.55
2022-11-21T18:15:22.118Z,20.17
2022-11-21T18:18:25.937Z,19.33
2022-11-21T18:21:31.184Z,21.05
2022-11-21T18:24:34.949Z,21.65
2022-11-21T18:27:38.348Z,19.92
2022-11-21T18:30:43.746Z,20.40
2022-11-21T18:33:51.528Z,24.27
2022-11-21T18:36:55.598Z,27.08
2022-11-21T18:40:00.245Z,24.58
2022-11-21T18:43:03.935Z,23.85
2022-11-21T18:46:09.284Z,19.55
2022-11-21T18:49:13.230Z,22.80
2022-11-21T18:52:16.573Z,22.58
2022-11-21T18:55:23.171Z,21.50
2022-11-21T18:58:27.379Z,17.42
2022-11-21T19:01:32.317Z,20.70
2022-11-21T19:04:36.720Z,20.58
2022-11-21T19:07:40.791Z,20.05
2022-11-21T19:10:44.816Z,17.50
2022-11-21T19:13:59.424Z,22.00
2022-11-21T19:17:02.592Z,24.35
2022-11-21T19:20:06.731Z,20.88
2022-11-21T19:23:10.187Z,16.67
2022-11-21T19:26:19.916Z,17.05
2022-11-21T19:29:23.682Z,18.52
2022-11-21T19:32:27.274Z,21.52
2022-11-21T19:35:30.662Z,17.05
2022-11-21T19:38:34.400Z,18.42
2022-11-21T19:41:37.701Z,21.65
2022-11-21T19:44:41.355Z,19.25
2022-11-21T19:47:49.346Z,16.85
2022-11-21T19:50:58.577Z,16.25
2022-11-21T19:54:03.331Z,18.77
2022-11-21T19:57:12.450Z,16.05
2022-11-21T20:00:18.219Z,23.10
2022-11-21T20:03:22.515Z,16.42
2022-11-21T20:06:27.789Z,12.80
2022-11-21T20:09:34.580Z,14.68
2022-11-21T20:12:38.250Z,17.27
2022-11-21T20:15:41.803Z,20.27
2022-11-21T20:18:45.401Z,17.08
2022-11-21T20:21:49.109Z,19.30
2022-11-21T20:24:52.661Z,25.30
2022-11-21T20:27:56.368Z,19.98
2022-11-21T20:31:16.762Z,22.85
2022-11-21T20:34:20.533Z,26.02
2022-11-21T20:37:23.667Z,37.70
2022-11-21T20:40:27.172Z,34.22
2022-11-21T20:43:59.509Z,32.38
2022-11-21T20:46:53.748Z,33.35
2022-11-21T20:49:57.104Z,48.20
2022-11-21T20:56:24.867Z,30.02
2022-11-21T20:59:28.728Z,25.85
2022-11-21T21:02:32.138Z,21.17
2022-11-21T21:05:35.470Z,18.95
2022-11-21T21:08:39.404Z,21.48
2022-11-21T21:11:58.215Z,25.15
2022-11-21T21:15:02.094Z,25.23
2022-11-21T21:18:05.467Z,24.70
2022-11-21T21:21:17.376Z,23.08
2022-11-21T21:24:21.001Z,20.92
2022-11-21T21:27:23.882Z,21.98
2022-11-21T21:30:27.040Z,18.12
2022-11-21T21:33:30.300Z,19.90
2022-11-21T21:36:33.652Z,17.50
2022-11-21T21:39:36.818Z,22.48
2022-11-21T21:42:40.403Z,20.50
2022-11-21T21:45:43.323Z,19.15
2022-11-21T21:48:47.354Z,19.35
2022-11-21T21:51:50.339Z,18.15
2022-11-21T21:54:53.911Z,17.35
2022-11-21T21:57:57.080Z,18.02
2022-11-21T22:01:16.207Z,17.62
2022-11-21T22:04:19.366Z,15.70
2022-11-21T22:07:22.403Z,17.20
2022-11-21T22:10:25.902Z,19.12
2022-11-21T22:13:30.720Z,17.73
2022-11-21T22:19:39.104Z,17.00
2022-11-21T22:22:42.612Z,17.00
2022-11-21T22:25:45.912Z,16.58
2022-11-21T22:28:49.134Z,15.50
2022-11-21T22:31:52.072Z,21.87
2022-11-21T22:34:55.497Z,15.63
2022-11-21T22:37:58.514Z,14.00
2022-11-21T22:41:03.324Z,12.68
2022-11-21T22:44:06.716Z,13.52
2022-11-21T22:47:09.875Z,15.65
2022-11-21T22:50:12.833Z,16.65
2022-11-21T22:53:16.088Z,18.90
2022-11-21T22:56:21.412Z,13.20
2022-11-21T22:59:24.861Z,16.58
2022-11-21T23:02:28.082Z,15.65
2022-11-21T23:05:32.891Z,15.00
2022-11-21T23:08:37.589Z,18.60
2022-11-21T23:11:41.277Z,18.23
2022-11-21T23:14:44.945Z,22.80
2022-11-21T23:17:52.579Z,21.42
2022-11-21T23:20:56.444Z,19.05
2022-11-21T23:23:59.627Z,18.50
2022-11-21T23:27:02.657Z,21.27
2022-11-21T23:30:06.679Z,21.67
2022-11-21T23:33:09.642Z,19.98
2022-11-21T23:36:13.181Z,20.40
2022-11-21T23:39:16.080Z,19.05
2022-11-21T23:42:19.534Z,20.37
2022-11-21T23:45:22.409Z,19.58
2022-11-21T23:48:25.949Z,20.85
2022-11-21T23:51:29.221Z,19.92
2022-11-21T23:54:32.436Z,17.60
2022-11-21T23:57:36.730Z,20.10
